Haslet, TX (76052)

4:00 PM CDT on May 06, 2015 (GMT -0500)
Villages of Woodland Springs West | | Change Station
CLOSE
Current Station
Personal Weather Station
Location: Keller, TX
Elevation: 797 ft
Nearby Weather Stations

Elev 797 ft 32.95 °N, 97.31 °W | Updated 17 seconds ago

Scattered Clouds
Scattered Clouds
83.0 °F
Feels Like 85 °F
N
0.0
Wind Variable Wind from WSW
Gusts 0.0 mph

Today
High -- | Low -- °F
--% Chance of Precip.
Yesterday
High -- | Low -- °F
Precip. -- in
6:37 AM 8:15 PM
Waning Gibbous, 92% visible
Pressure 29.83 in
Visibility 10.0 miles
Clouds Scattered Clouds 3000 ft
Heat Index 85 °F
Dew Point 66 °F
Humidity 57%
Rainfall 0.62 in
Snow Depth Not available.
UV 7 out of 12
Pollen 4.20 out of 12
Air Quality Not available.
Flu Activity Sporadic
METAR KAFW 062053Z 15012KT 10SM SCT030TCU 28/21 A2987 RMK AO2 SLP101 TCU NE-SE T02780206 58020

More Conditions Fewer Conditions

Pressure 29.83 in
Visibility 10.0 miles
Clouds Scattered Clouds 3000 ft
Heat Index 85 °F
Dew Point 66 °F
Humidity 57%
Rainfall 0.62 in
Snow Depth Not available.
UV 7 out of 12
Pollen 4.20 out of 12
Air Quality Not available.
Flu Activity Sporadic
METAR KAFW 062053Z 15012KT 10SM SCT030TCU 28/21 A2987 RMK AO2 SLP101 TCU NE-SE T02780206 58020

More Conditions Fewer Conditions

The Storm Prediction Center has issued an enhanced risk of severe weather for parts of central Texas, Oklahoma, Kansas, and southern Nebraska. Severe thunderstorms could form strong tornadoes, large hail, heavy rain, and strong wind into the evening. An area of slight risk of severe weather encompasses this enhanced area.

10-Day Weather Forecast

Almanac

Astronomy

May. 06, 2015 Rise Set
Actual Time
Civil Twilight
Nautical Twilight
Astronomical Twilight
Moon
Length of Visible Light
Length of Day
Tomorrow will be .
, % of the Moon is Illuminated

Today's Extremes

State Highs State Lows

Community

WunderPhotos

Upload Photos

1,819,014 photos uploaded!

WunderBlogs® & News

Nearby

Air Quality

  Air Quality AQ Index Pollutant
Not available.

Snow Depth

Station Depth Elevation

Earthquake Activity

City Distance Mag. Time & Date
Minimum magnitude displayed is 2.5.

Coastal Water Temperatures

Place Temperature

Stations

Nearby Weather Stations

Station Location Temp. Windchill Dew Point Humidity Wind Precip. Elev Updated Type